sensor_id;sensor_type;location;lat;lon;timestamp;pressure;altitude;pressure_sealevel;temperature;humidity
26376;BME280;30544;42.196;24.336;2022-07-23T00:01:10;99211.06;;;24.49;49.31
26376;BME280;30544;42.196;24.336;2022-07-23T00:03:37;99215.81;;;24.66;48.88
26376;BME280;30544;42.196;24.336;2022-07-23T00:06:04;99203.63;;;24.74;48.39
26376;BME280;30544;42.196;24.336;2022-07-23T00:08:31;99211.16;;;24.70;49.30
26376;BME280;30544;42.196;24.336;2022-07-23T00:10:58;99210.69;;;24.59;49.54
26376;BME280;30544;42.196;24.336;2022-07-23T00:13:26;99216.56;;;24.54;49.46
26376;BME280;30544;42.196;24.336;2022-07-23T00:15:53;99213.75;;;24.46;49.37
26376;BME280;30544;42.196;24.336;2022-07-23T00:18:21;99218.19;;;24.64;49.01
26376;BME280;30544;42.196;24.336;2022-07-23T00:20:48;99207.59;;;24.44;49.42
26376;BME280;30544;42.196;24.336;2022-07-23T00:23:15;99224.06;;;24.50;49.10
26376;BME280;30544;42.196;24.336;2022-07-23T00:25:42;99218.84;;;24.61;49.01
26376;BME280;30544;42.196;24.336;2022-07-23T00:28:11;99210.84;;;24.63;48.69
26376;BME280;30544;42.196;24.336;2022-07-23T00:30:38;99207.53;;;24.61;48.63
26376;BME280;30544;42.196;24.336;2022-07-23T00:33:07;99213.19;;;24.61;48.16
26376;BME280;30544;42.196;24.336;2022-07-23T00:35:37;99215.69;;;24.63;48.81
26376;BME280;30544;42.196;24.336;2022-07-23T00:38:06;99212.09;;;24.45;49.29
26376;BME280;30544;42.196;24.336;2022-07-23T00:40:33;99211.72;;;24.55;49.09
26376;BME280;30544;42.196;24.336;2022-07-23T00:43:00;99211.47;;;24.39;49.30
26376;BME280;30544;42.196;24.336;2022-07-23T00:45:28;99215.66;;;24.24;49.77
26376;BME280;30544;42.196;24.336;2022-07-23T00:47:55;99210.50;;;24.18;49.80
26376;BME280;30544;42.196;24.336;2022-07-23T00:50:22;99218.25;;;23.65;50.86
26376;BME280;30544;42.196;24.336;2022-07-23T00:52:51;99215.41;;;23.31;51.99
26376;BME280;30544;42.196;24.336;2022-07-23T00:55:18;99214.41;;;23.09;52.69
26376;BME280;30544;42.196;24.336;2022-07-23T00:57:46;99216.78;;;22.76;53.19
26376;BME280;30544;42.196;24.336;2022-07-23T01:00:14;99217.69;;;22.86;53.00
26376;BME280;30544;42.196;24.336;2022-07-23T01:02:41;99211.50;;;22.84;53.26
26376;BME280;30544;42.196;24.336;2022-07-23T01:05:09;99206.06;;;23.13;52.59
26376;BME280;30544;42.196;24.336;2022-07-23T01:07:36;99210.75;;;23.26;52.56
26376;BME280;30544;42.196;24.336;2022-07-23T01:10:06;99210.22;;;22.90;52.97
26376;BME280;30544;42.196;24.336;2022-07-23T01:12:53;99212.09;;;23.20;52.02
26376;BME280;30544;42.196;24.336;2022-07-23T01:15:21;99221.56;;;23.24;51.85
26376;BME280;30544;42.196;24.336;2022-07-23T01:17:48;99206.09;;;23.22;51.88
26376;BME280;30544;42.196;24.336;2022-07-23T01:20:15;99202.75;;;23.02;52.64
26376;BME280;30544;42.196;24.336;2022-07-23T01:22:44;99209.91;;;23.26;52.08
26376;BME280;30544;42.196;24.336;2022-07-23T01:25:11;99203.59;;;23.29;52.08
26376;BME280;30544;42.196;24.336;2022-07-23T01:27:37;99203.44;;;23.25;52.36
26376;BME280;30544;42.196;24.336;2022-07-23T01:30:06;99197.44;;;23.09;53.02
26376;BME280;30544;42.196;24.336;2022-07-23T01:32:33;99197.59;;;23.22;53.42
26376;BME280;30544;42.196;24.336;2022-07-23T01:34:59;99204.41;;;23.03;54.08
26376;BME280;30544;42.196;24.336;2022-07-23T01:37:26;99205.22;;;22.95;54.19
26376;BME280;30544;42.196;24.336;2022-07-23T01:39:54;99195.50;;;22.79;54.83
26376;BME280;30544;42.196;24.336;2022-07-23T01:42:21;99203.09;;;22.52;56.10
26376;BME280;30544;42.196;24.336;2022-07-23T01:44:48;99204.81;;;22.79;55.42
26376;BME280;30544;42.196;24.336;2022-07-23T01:47:16;99205.97;;;22.70;55.83
26376;BME280;30544;42.196;24.336;2022-07-23T01:49:42;99204.31;;;22.77;55.37
26376;BME280;30544;42.196;24.336;2022-07-23T01:52:09;99210.25;;;22.59;55.55
26376;BME280;30544;42.196;24.336;2022-07-23T01:54:38;99212.34;;;22.84;54.96
26376;BME280;30544;42.196;24.336;2022-07-23T01:57:07;99214.91;;;22.63;54.98
26376;BME280;30544;42.196;24.336;2022-07-23T01:59:35;99215.75;;;22.64;55.17
26376;BME280;30544;42.196;24.336;2022-07-23T02:02:02;99215.09;;;22.67;55.05
26376;BME280;30544;42.196;24.336;2022-07-23T02:04:30;99210.47;;;22.71;54.75
26376;BME280;30544;42.196;24.336;2022-07-23T02:07:00;99213.41;;;22.57;54.48
26376;BME280;30544;42.196;24.336;2022-07-23T02:09:27;99209.31;;;22.72;54.71
26376;BME280;30544;42.196;24.336;2022-07-23T02:11:54;99205.97;;;22.78;53.96
26376;BME280;30544;42.196;24.336;2022-07-23T02:14:22;99204.81;;;22.79;54.05
26376;BME280;30544;42.196;24.336;2022-07-23T02:16:49;99205.31;;;22.81;53.75
26376;BME280;30544;42.196;24.336;2022-07-23T02:19:16;99202.31;;;22.78;53.74
26376;BME280;30544;42.196;24.336;2022-07-23T02:21:43;99209.47;;;22.75;53.98
26376;BME280;30544;42.196;24.336;2022-07-23T02:24:10;99212.41;;;22.62;54.29
26376;BME280;30544;42.196;24.336;2022-07-23T02:26:37;99207.63;;;22.71;53.77
26376;BME280;30544;42.196;24.336;2022-07-23T02:29:04;99199.28;;;22.66;53.95
26376;BME280;30544;42.196;24.336;2022-07-23T02:31:32;99212.41;;;22.53;54.69
26376;BME280;30544;42.196;24.336;2022-07-23T02:33:59;99213.44;;;22.26;54.35
26376;BME280;30544;42.196;24.336;2022-07-23T02:36:27;99209.22;;;22.15;55.07
26376;BME280;30544;42.196;24.336;2022-07-23T02:38:54;99214.44;;;22.30;54.87
26376;BME280;30544;42.196;24.336;2022-07-23T02:41:20;99220.47;;;22.37;54.29
26376;BME280;30544;42.196;24.336;2022-07-23T02:43:47;99216.63;;;22.33;54.18
26376;BME280;30544;42.196;24.336;2022-07-23T02:46:14;99220.84;;;22.44;54.23
26376;BME280;30544;42.196;24.336;2022-07-23T02:48:42;99225.41;;;22.23;54.93
26376;BME280;30544;42.196;24.336;2022-07-23T02:51:09;99216.50;;;22.07;55.54
26376;BME280;30544;42.196;24.336;2022-07-23T02:53:36;99216.91;;;22.23;55.91
26376;BME280;30544;42.196;24.336;2022-07-23T02:56:03;99223.22;;;21.98;56.67
26376;BME280;30544;42.196;24.336;2022-07-23T02:58:31;99214.75;;;22.20;56.44
26376;BME280;30544;42.196;24.336;2022-07-23T03:00:57;99218.16;;;22.08;57.00
26376;BME280;30544;42.196;24.336;2022-07-23T03:03:24;99219.78;;;22.01;57.38
26376;BME280;30544;42.196;24.336;2022-07-23T03:05:52;99215.91;;;21.97;57.39
26376;BME280;30544;42.196;24.336;2022-07-23T03:08:19;99222.34;;;21.88;57.74
26376;BME280;30544;42.196;24.336;2022-07-23T03:10:46;99224.50;;;21.91;57.59
26376;BME280;30544;42.196;24.336;2022-07-23T03:13:13;99222.44;;;21.83;58.58
26376;BME280;30544;42.196;24.336;2022-07-23T03:15:40;99224.44;;;21.83;58.30
26376;BME280;30544;42.196;24.336;2022-07-23T03:18:07;99222.00;;;21.90;58.03
26376;BME280;30544;42.196;24.336;2022-07-23T03:20:34;99229.97;;;21.88;57.73
26376;BME280;30544;42.196;24.336;2022-07-23T03:23:02;99235.28;;;22.12;57.19
26376;BME280;30544;42.196;24.336;2022-07-23T03:25:29;99235.84;;;22.00;57.26
26376;BME280;30544;42.196;24.336;2022-07-23T03:27:56;99235.78;;;22.14;56.93
26376;BME280;30544;42.196;24.336;2022-07-23T03:30:22;99235.03;;;22.22;56.22
26376;BME280;30544;42.196;24.336;2022-07-23T03:32:49;99235.69;;;22.19;55.12
26376;BME280;30544;42.196;24.336;2022-07-23T03:35:16;99236.94;;;22.35;55.55
26376;BME280;30544;42.196;24.336;2022-07-23T03:37:44;99238.63;;;22.45;55.20
26376;BME280;30544;42.196;24.336;2022-07-23T03:40:12;99247.34;;;22.26;54.79
26376;BME280;30544;42.196;24.336;2022-07-23T03:42:39;99242.13;;;21.97;54.98
26376;BME280;30544;42.196;24.336;2022-07-23T03:45:08;99247.19;;;22.31;54.20
26376;BME280;30544;42.196;24.336;2022-07-23T03:47:35;99241.94;;;22.16;54.35
26376;BME280;30544;42.196;24.336;2022-07-23T03:50:02;99246.72;;;22.07;54.83
26376;BME280;30544;42.196;24.336;2022-07-23T03:52:29;99233.72;;;22.28;53.51
26376;BME280;30544;42.196;24.336;2022-07-23T03:54:56;99238.91;;;22.35;53.57
26376;BME280;30544;42.196;24.336;2022-07-23T03:57:24;99239.66;;;22.58;53.23
26376;BME280;30544;42.196;24.336;2022-07-23T03:59:51;99248.41;;;22.08;53.56
26376;BME280;30544;42.196;24.336;2022-07-23T04:02:18;99253.34;;;22.33;53.53
26376;BME280;30544;42.196;24.336;2022-07-23T04:04:45;99250.13;;;22.17;53.75
26376;BME280;30544;42.196;24.336;2022-07-23T04:07:12;99248.31;;;22.61;52.74
26376;BME280;30544;42.196;24.336;2022-07-23T04:09:39;99244.84;;;23.04;51.56
26376;BME280;30544;42.196;24.336;2022-07-23T04:12:07;99233.72;;;23.42;50.43
26376;BME280;30544;42.196;24.336;2022-07-23T04:14:35;99243.91;;;23.78;49.58
26376;BME280;30544;42.196;24.336;2022-07-23T04:17:02;99236.66;;;24.23;48.41
26376;BME280;30544;42.196;24.336;2022-07-23T04:19:29;99242.38;;;24.62;47.69
26376;BME280;30544;42.196;24.336;2022-07-23T04:21:57;99238.59;;;24.87;46.84
26376;BME280;30544;42.196;24.336;2022-07-23T04:24:23;99239.34;;;24.96;46.78
26376;BME280;30544;42.196;24.336;2022-07-23T04:26:50;99234.34;;;25.02;46.29
26376;BME280;30544;42.196;24.336;2022-07-23T04:29:18;99239.13;;;25.10;46.19
26376;BME280;30544;42.196;24.336;2022-07-23T04:31:46;99234.47;;;25.56;45.45
26376;BME280;30544;42.196;24.336;2022-07-23T04:34:13;99244.69;;;25.06;45.72
26376;BME280;30544;42.196;24.336;2022-07-23T04:36:40;99238.28;;;25.60;45.01
26376;BME280;30544;42.196;24.336;2022-07-23T04:39:07;99232.03;;;25.87;44.68
26376;BME280;30544;42.196;24.336;2022-07-23T04:41:33;99242.13;;;25.97;44.51
26376;BME280;30544;42.196;24.336;2022-07-23T04:44:00;99243.81;;;25.77;44.87
26376;BME280;30544;42.196;24.336;2022-07-23T04:46:27;99252.31;;;25.98;44.22
26376;BME280;30544;42.196;24.336;2022-07-23T04:48:55;99246.56;;;26.40;43.83
26376;BME280;30544;42.196;24.336;2022-07-23T04:51:22;99249.91;;;25.88;45.10
26376;BME280;30544;42.196;24.336;2022-07-23T04:53:49;99252.53;;;25.51;45.53
26376;BME280;30544;42.196;24.336;2022-07-23T04:56:16;99249.88;;;25.67;45.28
26376;BME280;30544;42.196;24.336;2022-07-23T04:58:43;99242.53;;;25.66;45.70
26376;BME280;30544;42.196;24.336;2022-07-23T05:01:10;99248.75;;;26.34;44.28
26376;BME280;30544;42.196;24.336;2022-07-23T05:03:36;99236.50;;;26.42;44.64
26376;BME280;30544;42.196;24.336;2022-07-23T05:06:05;99235.91;;;26.85;43.53
26376;BME280;30544;42.196;24.336;2022-07-23T05:08:32;99239.75;;;27.02;43.07
26376;BME280;30544;42.196;24.336;2022-07-23T05:10:58;99235.59;;;27.11;42.24
26376;BME280;30544;42.196;24.336;2022-07-23T05:13:25;99241.28;;;27.23;42.10
26376;BME280;30544;42.196;24.336;2022-07-23T05:15:52;99239.44;;;27.43;41.41
26376;BME280;30544;42.196;24.336;2022-07-23T05:18:19;99238.47;;;27.51;41.06
26376;BME280;30544;42.196;24.336;2022-07-23T05:20:46;99241.91;;;27.57;40.52
26376;BME280;30544;42.196;24.336;2022-07-23T05:23:14;99234.91;;;27.67;40.95
26376;BME280;30544;42.196;24.336;2022-07-23T05:25:40;99233.88;;;28.15;39.72
26376;BME280;30544;42.196;24.336;2022-07-23T05:28:07;99229.81;;;28.16;39.21
26376;BME280;30544;42.196;24.336;2022-07-23T05:30:34;99232.56;;;28.40;39.42
26376;BME280;30544;42.196;24.336;2022-07-23T05:33:01;99223.53;;;28.54;39.63
26376;BME280;30544;42.196;24.336;2022-07-23T05:35:28;99227.97;;;28.52;39.80
26376;BME280;30544;42.196;24.336;2022-07-23T05:37:54;99222.19;;;28.95;39.22
26376;BME280;30544;42.196;24.336;2022-07-23T05:40:23;99219.78;;;28.97;39.98
26376;BME280;30544;42.196;24.336;2022-07-23T05:42:49;99225.91;;;28.36;41.06
26376;BME280;30544;42.196;24.336;2022-07-23T05:45:16;99231.94;;;28.63;41.31
26376;BME280;30544;42.196;24.336;2022-07-23T05:47:45;99234.78;;;28.19;42.21
26376;BME280;30544;42.196;24.336;2022-07-23T05:50:12;99237.44;;;28.40;42.52
26376;BME280;30544;42.196;24.336;2022-07-23T05:52:40;99229.63;;;29.00;41.20
26376;BME280;30544;42.196;24.336;2022-07-23T05:55:08;99220.16;;;28.80;41.31
26376;BME280;30544;42.196;24.336;2022-07-23T05:57:36;99226.78;;;29.35;40.26
26376;BME280;30544;42.196;24.336;2022-07-23T06:00:05;99233.66;;;29.15;40.26
26376;BME280;30544;42.196;24.336;2022-07-23T06:02:33;99233.94;;;29.60;39.48
26376;BME280;30544;42.196;24.336;2022-07-23T06:04:59;99231.84;;;29.57;38.66
26376;BME280;30544;42.196;24.336;2022-07-23T06:07:26;99224.44;;;29.21;39.92
26376;BME280;30544;42.196;24.336;2022-07-23T06:09:53;99227.63;;;29.35;39.42
26376;BME280;30544;42.196;24.336;2022-07-23T06:12:20;99232.50;;;29.89;38.22
26376;BME280;30544;42.196;24.336;2022-07-23T06:14:48;99229.59;;;30.05;39.05
26376;BME280;30544;42.196;24.336;2022-07-23T06:17:17;99223.25;;;30.15;39.81
26376;BME280;30544;42.196;24.336;2022-07-23T06:19:44;99228.97;;;30.15;38.25
26376;BME280;30544;42.196;24.336;2022-07-23T06:22:11;99223.09;;;30.50;38.13
26376;BME280;30544;42.196;24.336;2022-07-23T06:24:37;99228.88;;;30.54;37.93
26376;BME280;30544;42.196;24.336;2022-07-23T06:27:04;99222.09;;;30.85;36.95
26376;BME280;30544;42.196;24.336;2022-07-23T06:29:31;99218.75;;;30.79;36.99
26376;BME280;30544;42.196;24.336;2022-07-23T06:31:59;99224.00;;;31.00;36.64
26376;BME280;30544;42.196;24.336;2022-07-23T06:34:26;99217.38;;;31.19;35.94
26376;BME280;30544;42.196;24.336;2022-07-23T06:36:53;99222.41;;;31.03;35.45
26376;BME280;30544;42.196;24.336;2022-07-23T06:39:20;99217.34;;;30.93;36.33
26376;BME280;30544;42.196;24.336;2022-07-23T06:41:47;99218.19;;;31.20;35.87
26376;BME280;30544;42.196;24.336;2022-07-23T06:44:14;99220.75;;;31.02;35.79
26376;BME280;30544;42.196;24.336;2022-07-23T06:46:41;99214.28;;;31.91;35.50
26376;BME280;30544;42.196;24.336;2022-07-23T06:49:09;99213.53;;;31.94;34.64
26376;BME280;30544;42.196;24.336;2022-07-23T06:51:36;99213.13;;;31.66;35.79
26376;BME280;30544;42.196;24.336;2022-07-23T06:54:03;99209.72;;;31.27;35.21
26376;BME280;30544;42.196;24.336;2022-07-23T06:56:30;99200.09;;;32.02;34.76
26376;BME280;30544;42.196;24.336;2022-07-23T06:58:57;99197.56;;;32.71;34.52
26376;BME280;30544;42.196;24.336;2022-07-23T07:01:24;99205.41;;;32.34;34.61
26376;BME280;30544;42.196;24.336;2022-07-23T07:03:50;99197.94;;;32.70;34.79
26376;BME280;30544;42.196;24.336;2022-07-23T07:06:19;99183.69;;;32.77;33.58
26376;BME280;30544;42.196;24.336;2022-07-23T07:08:46;99203.28;;;33.19;34.53
26376;BME280;30544;42.196;24.336;2022-07-23T07:11:12;99194.47;;;33.49;33.02
26376;BME280;30544;42.196;24.336;2022-07-23T07:13:39;99198.88;;;33.32;32.81
26376;BME280;30544;42.196;24.336;2022-07-23T07:16:06;99194.53;;;32.98;32.09
26376;BME280;30544;42.196;24.336;2022-07-23T07:18:34;99184.63;;;33.50;32.65
26376;BME280;30544;42.196;24.336;2022-07-23T07:21:01;99189.88;;;33.34;32.29
26376;BME280;30544;42.196;24.336;2022-07-23T07:23:29;99193.38;;;33.75;31.38
26376;BME280;30544;42.196;24.336;2022-07-23T07:25:56;99183.47;;;33.62;31.39
26376;BME280;30544;42.196;24.336;2022-07-23T07:28:23;99174.56;;;33.85;32.15
26376;BME280;30544;42.196;24.336;2022-07-23T07:30:50;99177.97;;;34.29;31.56
26376;BME280;30544;42.196;24.336;2022-07-23T07:33:16;99178.25;;;33.89;31.18
26376;BME280;30544;42.196;24.336;2022-07-23T07:35:43;99177.94;;;34.19;31.37
26376;BME280;30544;42.196;24.336;2022-07-23T07:38:10;99175.50;;;34.28;30.90
26376;BME280;30544;42.196;24.336;2022-07-23T07:40:38;99175.06;;;34.15;30.34
26376;BME280;30544;42.196;24.336;2022-07-23T07:43:05;99168.22;;;34.94;30.76
26376;BME280;30544;42.196;24.336;2022-07-23T07:45:32;99171.88;;;35.13;30.22
26376;BME280;30544;42.196;24.336;2022-07-23T07:47:59;99169.78;;;35.24;29.33
26376;BME280;30544;42.196;24.336;2022-07-23T07:50:26;99166.53;;;35.01;29.30
26376;BME280;30544;42.196;24.336;2022-07-23T07:52:53;99171.81;;;35.41;29.31
26376;BME280;30544;42.196;24.336;2022-07-23T07:55:20;99162.38;;;35.37;28.44
26376;BME280;30544;42.196;24.336;2022-07-23T07:57:48;99159.09;;;35.35;29.74
26376;BME280;30544;42.196;24.336;2022-07-23T08:00:16;99170.50;;;35.71;27.81
26376;BME280;30544;42.196;24.336;2022-07-23T08:02:43;99152.72;;;35.83;27.98
26376;BME280;30544;42.196;24.336;2022-07-23T08:05:11;99152.88;;;35.44;27.95
26376;BME280;30544;42.196;24.336;2022-07-23T08:07:38;99161.53;;;35.40;28.40
26376;BME280;30544;42.196;24.336;2022-07-23T08:10:06;99148.97;;;36.00;29.13
26376;BME280;30544;42.196;24.336;2022-07-23T08:12:41;99151.88;;;35.97;27.60
26376;BME280;30544;42.196;24.336;2022-07-23T08:15:11;99138.06;;;36.33;27.47
26376;BME280;30544;42.196;24.336;2022-07-23T08:17:39;99137.44;;;36.59;27.12
26376;BME280;30544;42.196;24.336;2022-07-23T08:20:07;99133.13;;;36.33;26.57
26376;BME280;30544;42.196;24.336;2022-07-23T08:22:48;99127.00;;;36.80;26.13
26376;BME280;30544;42.196;24.336;2022-07-23T08:25:19;99126.53;;;36.85;27.70
26376;BME280;30544;42.196;24.336;2022-07-23T08:27:46;99112.72;;;37.03;27.34
26376;BME280;30544;42.196;24.336;2022-07-23T08:30:16;99114.31;;;37.08;27.09
26376;BME280;30544;42.196;24.336;2022-07-23T08:32:51;99116.34;;;36.07;26.58
26376;BME280;30544;42.196;24.336;2022-07-23T08:35:21;99117.25;;;37.04;26.49
26376;BME280;30544;42.196;24.336;2022-07-23T08:37:50;99118.50;;;37.03;26.30
26376;BME280;30544;42.196;24.336;2022-07-23T08:40:17;99123.78;;;36.67;25.67
26376;BME280;30544;42.196;24.336;2022-07-23T08:42:47;99109.69;;;36.80;25.63
26376;BME280;30544;42.196;24.336;2022-07-23T08:45:18;99112.44;;;37.31;26.47
26376;BME280;30544;42.196;24.336;2022-07-23T08:47:51;99111.97;;;37.37;24.46
26376;BME280;30544;42.196;24.336;2022-07-23T08:50:18;99112.88;;;37.64;25.83
26376;BME280;30544;42.196;24.336;2022-07-23T08:52:45;99105.66;;;37.45;25.33
26376;BME280;30544;42.196;24.336;2022-07-23T08:55:13;99104.06;;;37.41;24.45
26376;BME280;30544;42.196;24.336;2022-07-23T08:57:40;99113.94;;;37.47;23.50
26376;BME280;30544;42.196;24.336;2022-07-23T09:00:07;99110.50;;;37.55;23.63
26376;BME280;30544;42.196;24.336;2022-07-23T09:02:43;99113.78;;;37.57;23.54
26376;BME280;30544;42.196;24.336;2022-07-23T09:05:12;99112.09;;;37.60;24.42
26376;BME280;30544;42.196;24.336;2022-07-23T09:08:07;99110.47;;;37.89;22.86
26376;BME280;30544;42.196;24.336;2022-07-23T09:10:46;99109.16;;;37.94;21.43
26376;BME280;30544;42.196;24.336;2022-07-23T09:13:32;99116.28;;;38.20;22.29
26376;BME280;30544;42.196;24.336;2022-07-23T09:16:00;99109.16;;;37.94;21.73
26376;BME280;30544;42.196;24.336;2022-07-23T09:18:34;99104.09;;;37.71;21.49
26376;BME280;30544;42.196;24.336;2022-07-23T09:21:14;99091.38;;;37.96;22.83
26376;BME280;30544;42.196;24.336;2022-07-23T09:23:43;99091.56;;;37.51;22.02
26376;BME280;30544;42.196;24.336;2022-07-23T09:26:31;99098.69;;;38.34;22.54
26376;BME280;30544;42.196;24.336;2022-07-23T09:29:00;99094.91;;;38.61;22.07
26376;BME280;30544;42.196;24.336;2022-07-23T09:31:32;99091.66;;;38.59;20.86
26376;BME280;30544;42.196;24.336;2022-07-23T09:34:08;99088.75;;;38.35;22.08
26376;BME280;30544;42.196;24.336;2022-07-23T09:36:36;99088.78;;;38.82;21.96
26376;BME280;30544;42.196;24.336;2022-07-23T09:39:03;99087.38;;;39.14;20.66
26376;BME280;30544;42.196;24.336;2022-07-23T09:41:38;99072.94;;;38.67;19.73
26376;BME280;30544;42.196;24.336;2022-07-23T09:44:10;99078.72;;;38.63;21.46
26376;BME280;30544;42.196;24.336;2022-07-23T09:46:38;99073.63;;;38.94;20.41
26376;BME280;30544;42.196;24.336;2022-07-23T09:49:18;99067.59;;;38.38;21.57
26376;BME280;30544;42.196;24.336;2022-07-23T09:51:51;99073.91;;;38.80;19.80
26376;BME280;30544;42.196;24.336;2022-07-23T09:54:27;99068.03;;;39.07;21.15
26376;BME280;30544;42.196;24.336;2022-07-23T09:56:57;99066.28;;;38.90;20.29
26376;BME280;30544;42.196;24.336;2022-07-23T09:59:26;99065.44;;;39.13;20.79
26376;BME280;30544;42.196;24.336;2022-07-23T10:01:54;99075.38;;;39.35;20.02
26376;BME280;30544;42.196;24.336;2022-07-23T10:04:24;99072.75;;;39.40;20.45
26376;BME280;30544;42.196;24.336;2022-07-23T10:06:53;99070.84;;;39.54;20.14
26376;BME280;30544;42.196;24.336;2022-07-23T10:09:24;99064.50;;;39.39;20.49
26376;BME280;30544;42.196;24.336;2022-07-23T10:11:54;99056.75;;;39.72;19.20
26376;BME280;30544;42.196;24.336;2022-07-23T10:14:23;99060.72;;;39.62;19.08
26376;BME280;30544;42.196;24.336;2022-07-23T10:16:50;99051.06;;;39.68;19.92
26376;BME280;30544;42.196;24.336;2022-07-23T10:19:17;99044.84;;;39.86;19.69
26376;BME280;30544;42.196;24.336;2022-07-23T10:21:49;99052.47;;;39.60;18.81
26376;BME280;30544;42.196;24.336;2022-07-23T10:24:27;99042.91;;;39.00;18.60
26376;BME280;30544;42.196;24.336;2022-07-23T10:27:05;99040.44;;;38.29;19.32
26376;BME280;30544;42.196;24.336;2022-07-23T10:29:47;99031.28;;;39.24;19.68
26376;BME280;30544;42.196;24.336;2022-07-23T10:32:24;99034.16;;;39.63;19.80
26376;BME280;30544;42.196;24.336;2022-07-23T10:34:59;99024.56;;;39.66;19.35
26376;BME280;30544;42.196;24.336;2022-07-23T10:37:36;99024.84;;;40.08;20.28
26376;BME280;30544;42.196;24.336;2022-07-23T10:40:09;99020.63;;;39.93;19.73
26376;BME280;30544;42.196;24.336;2022-07-23T10:42:37;99016.78;;;39.80;19.29
26376;BME280;30544;42.196;24.336;2022-07-23T10:45:22;99011.72;;;40.36;19.49
26376;BME280;30544;42.196;24.336;2022-07-23T10:47:50;99013.00;;;39.83;19.16
26376;BME280;30544;42.196;24.336;2022-07-23T10:50:22;99001.44;;;39.63;19.01
26376;BME280;30544;42.196;24.336;2022-07-23T10:53:11;98997.22;;;39.28;19.78
26376;BME280;30544;42.196;24.336;2022-07-23T10:55:44;98999.22;;;39.87;19.23
26376;BME280;30544;42.196;24.336;2022-07-23T10:58:17;98993.84;;;40.21;18.56
26376;BME280;30544;42.196;24.336;2022-07-23T11:00:44;98987.84;;;40.45;19.14
26376;BME280;30544;42.196;24.336;2022-07-23T11:03:34;98986.16;;;39.95;17.90
26376;BME280;30544;42.196;24.336;2022-07-23T11:06:04;98983.25;;;40.15;17.70
26376;BME280;30544;42.196;24.336;2022-07-23T11:08:32;98975.16;;;40.22;19.18
26376;BME280;30544;42.196;24.336;2022-07-23T11:11:13;98976.97;;;40.33;18.35
26376;BME280;30544;42.196;24.336;2022-07-23T11:13:48;98977.78;;;40.33;18.43
26376;BME280;30544;42.196;24.336;2022-07-23T11:16:23;98970.25;;;40.52;18.85
26376;BME280;30544;42.196;24.336;2022-07-23T11:19:04;98969.69;;;40.24;17.42
26376;BME280;30544;42.196;24.336;2022-07-23T11:21:42;98967.28;;;40.39;18.15
26376;BME280;30544;42.196;24.336;2022-07-23T11:24:11;98974.78;;;40.37;17.75
26376;BME280;30544;42.196;24.336;2022-07-23T11:27:01;98973.06;;;40.23;18.51
26376;BME280;30544;42.196;24.336;2022-07-23T11:29:44;98970.25;;;40.36;16.97
26376;BME280;30544;42.196;24.336;2022-07-23T11:32:28;98968.78;;;40.44;16.93
26376;BME280;30544;42.196;24.336;2022-07-23T11:34:55;98966.88;;;40.37;17.44
26376;BME280;30544;42.196;24.336;2022-07-23T11:37:32;98957.38;;;40.20;18.53
26376;BME280;30544;42.196;24.336;2022-07-23T11:40:02;98953.28;;;40.79;17.77
26376;BME280;30544;42.196;24.336;2022-07-23T11:42:29;98951.66;;;40.78;16.95
26376;BME280;30544;42.196;24.336;2022-07-23T11:44:56;98945.88;;;40.62;17.58
26376;BME280;30544;42.196;24.336;2022-07-23T11:47:24;98944.09;;;40.81;17.34
26376;BME280;30544;42.196;24.336;2022-07-23T11:49:55;98948.00;;;40.91;17.62
26376;BME280;30544;42.196;24.336;2022-07-23T11:52:22;98946.25;;;41.22;16.96
26376;BME280;30544;42.196;24.336;2022-07-23T11:54:52;98943.81;;;41.21;16.96
26376;BME280;30544;42.196;24.336;2022-07-23T11:57:24;98932.78;;;40.86;16.90
26376;BME280;30544;42.196;24.336;2022-07-23T11:59:53;98941.25;;;41.23;16.87
26376;BME280;30544;42.196;24.336;2022-07-23T12:02:22;98933.84;;;41.34;16.97
26376;BME280;30544;42.196;24.336;2022-07-23T12:04:50;98932.03;;;41.11;17.05
26376;BME280;30544;42.196;24.336;2022-07-23T12:07:25;98929.56;;;41.52;17.94
26376;BME280;30544;42.196;24.336;2022-07-23T12:09:52;98915.56;;;41.46;17.12
26376;BME280;30544;42.196;24.336;2022-07-23T12:12:20;98917.81;;;41.55;16.38
26376;BME280;30544;42.196;24.336;2022-07-23T12:14:49;98914.00;;;41.71;16.18
26376;BME280;30544;42.196;24.336;2022-07-23T12:17:16;98923.16;;;41.95;16.85
26376;BME280;30544;42.196;24.336;2022-07-23T12:19:43;98914.56;;;41.53;16.20
26376;BME280;30544;42.196;24.336;2022-07-23T12:22:10;98900.59;;;41.73;15.59
26376;BME280;30544;42.196;24.336;2022-07-23T12:24:52;98907.56;;;41.51;15.42
26376;BME280;30544;42.196;24.336;2022-07-23T12:27:21;98903.59;;;41.44;16.46
26376;BME280;30544;42.196;24.336;2022-07-23T12:29:49;98893.97;;;41.73;15.70
26376;BME280;30544;42.196;24.336;2022-07-23T12:32:20;98895.56;;;41.48;16.04
26376;BME280;30544;42.196;24.336;2022-07-23T12:35:01;98887.41;;;41.94;15.95
26376;BME280;30544;42.196;24.336;2022-07-23T12:37:31;98890.41;;;42.16;16.21
26376;BME280;30544;42.196;24.336;2022-07-23T12:39:58;98885.09;;;42.02;15.45
26376;BME280;30544;42.196;24.336;2022-07-23T12:42:26;98881.88;;;41.74;15.33
26376;BME280;30544;42.196;24.336;2022-07-23T12:45:10;98882.53;;;41.91;15.39
26376;BME280;30544;42.196;24.336;2022-07-23T12:47:59;98883.56;;;41.97;15.27
26376;BME280;30544;42.196;24.336;2022-07-23T12:53:19;98869.16;;;41.94;15.85
26376;BME280;30544;42.196;24.336;2022-07-23T12:55:47;98874.84;;;41.97;15.81
26376;BME280;30544;42.196;24.336;2022-07-23T12:58:17;98871.13;;;42.10;15.75
26376;BME280;30544;42.196;24.336;2022-07-23T13:00:55;98864.19;;;42.29;15.17
26376;BME280;30544;42.196;24.336;2022-07-23T13:03:25;98853.81;;;42.28;16.13